createdAt,value
2023-04-15T00:00:02.406Z,6.02
2023-04-15T00:05:03.261Z,6.01
2023-04-15T00:10:02.844Z,6
2023-04-15T00:15:02.787Z,6.02
2023-04-15T00:20:02.598Z,6.03
2023-04-15T00:25:02.341Z,6.03
2023-04-15T00:30:03.220Z,6.03
2023-04-15T00:35:02.869Z,6.03
2023-04-15T00:40:02.578Z,6.05
2023-04-15T00:45:02.364Z,6.08
2023-04-15T00:50:03.077Z,6.08
2023-04-15T00:55:03.585Z,6.1
2023-04-15T01:00:02.515Z,6.1
2023-04-15T01:05:02.394Z,6.12
2023-04-15T01:10:03.148Z,6.14
2023-04-15T01:15:02.414Z,6.16
2023-04-15T01:20:02.776Z,6.17
2023-04-15T01:25:02.546Z,6.19
2023-04-15T01:30:02.357Z,6.19
2023-04-15T01:35:03.004Z,6.17
2023-04-15T01:40:02.759Z,6.17
2023-04-15T01:45:02.504Z,6.17
2023-04-15T01:50:02.170Z,6.16
2023-04-15T01:55:03.699Z,6.17
2023-04-15T02:00:02.992Z,6.18
2023-04-15T02:05:02.648Z,6.18
2023-04-15T02:10:02.614Z,6.19
2023-04-15T02:15:02.358Z,6.19
2023-04-15T02:20:03.056Z,6.19
2023-04-15T02:25:02.803Z,6.19
2023-04-15T02:30:02.563Z,6.19
2023-04-15T02:35:02.745Z,6.19
2023-04-15T02:40:02.463Z,6.18
2023-04-15T02:45:02.548Z,6.18
2023-04-15T02:50:02.313Z,6.19
2023-04-15T02:55:04.066Z,6.2
2023-04-15T03:00:03.016Z,6.2
2023-04-15T03:05:02.781Z,6.21
2023-04-15T03:10:02.493Z,6.21
2023-04-15T03:15:02.360Z,6.23
2023-04-15T03:20:02.388Z,6.24
2023-04-15T03:25:03.148Z,6.24
2023-04-15T03:30:02.992Z,6.26
2023-04-15T03:35:02.615Z,6.26
2023-04-15T03:40:02.341Z,6.27
2023-04-15T03:45:03.080Z,6.29
2023-04-15T03:50:02.946Z,6.3
2023-04-15T03:55:03.991Z,6.32
2023-04-15T04:00:02.519Z,6.34
2023-04-15T04:05:03.411Z,6.36
2023-04-15T04:10:03.011Z,6.4
2023-04-15T04:15:02.770Z,6.42
2023-04-15T04:20:02.542Z,6.44
2023-04-15T04:25:02.355Z,6.49
2023-04-15T04:30:02.305Z,6.51
2023-04-15T04:35:02.946Z,6.55
2023-04-15T04:40:02.723Z,6.58
2023-04-15T04:45:02.601Z,6.66
2023-04-15T04:50:02.517Z,6.78
2023-04-15T04:55:03.550Z,6.86
2023-04-15T05:00:03.239Z,6.86
2023-04-15T05:05:03.039Z,6.89
2023-04-15T05:10:02.657Z,6.97
2023-04-15T05:15:02.331Z,7.03
2023-04-15T05:20:02.262Z,7.07
2023-04-15T05:25:02.253Z,7.09
2023-04-15T05:30:03.153Z,7.16
2023-04-15T05:35:02.825Z,7.21
2023-04-15T05:40:02.751Z,7.25
2023-04-15T05:45:02.544Z,7.3
2023-04-15T05:50:02.323Z,7.37
2023-04-15T05:55:03.805Z,7.38
2023-04-15T06:00:03.178Z,7.48
2023-04-15T06:05:02.708Z,7.53
2023-04-15T06:10:02.500Z,7.6
2023-04-15T06:15:02.551Z,7.68
2023-04-15T06:20:02.495Z,7.72
2023-04-15T06:25:02.354Z,7.76
2023-04-15T06:30:03.114Z,7.81
2023-04-15T06:35:02.966Z,7.89
2023-04-15T06:40:02.488Z,7.91
2023-04-15T06:45:03.237Z,7.92
2023-04-15T06:50:02.781Z,7.93
2023-04-15T06:55:03.507Z,7.96
2023-04-15T07:00:02.254Z,7.99
2023-04-15T07:05:03.072Z,8
2023-04-15T07:10:02.792Z,8.01
2023-04-15T07:15:02.624Z,8.05
2023-04-15T07:20:02.448Z,8.09
2023-04-15T07:25:02.447Z,8.12
2023-04-15T07:30:03.206Z,8.21
2023-04-15T07:35:02.961Z,8.23
2023-04-15T07:40:02.671Z,8.23
2023-04-15T07:45:03.163Z,8.23
2023-04-15T07:50:02.777Z,8.38
2023-04-15T07:55:03.767Z,8.41
2023-04-15T08:00:02.533Z,8.42
2023-04-15T08:05:02.337Z,8.45
2023-04-15T08:10:02.268Z,8.48
2023-04-15T08:15:02.425Z,8.51
2023-04-15T08:20:02.555Z,8.59
2023-04-15T08:25:02.630Z,8.61
2023-04-15T08:30:04.775Z,8.67
2023-04-15T08:35:03.084Z,8.71
2023-04-15T08:40:02.809Z,8.75
2023-04-15T08:45:02.790Z,8.78
2023-04-15T08:50:02.502Z,8.9
2023-04-15T08:55:03.287Z,8.86
2023-04-15T09:00:03.880Z,8.76
2023-04-15T09:05:02.593Z,8.75
2023-04-15T09:10:02.380Z,8.72
2023-04-15T09:15:02.376Z,8.72
2023-04-15T09:20:02.994Z,8.75
2023-04-15T09:25:02.907Z,8.81
2023-04-15T09:30:02.677Z,8.77
2023-04-15T09:35:02.919Z,8.74
2023-04-15T09:40:02.648Z,8.78
2023-04-15T09:45:02.349Z,8.75
2023-04-15T09:50:03.128Z,8.77
2023-04-15T09:55:03.279Z,8.77
2023-04-15T10:00:02.626Z,8.72
2023-04-15T10:05:02.251Z,8.74
2023-04-15T10:10:03.095Z,8.71
2023-04-15T10:15:02.748Z,8.64
2023-04-15T10:20:02.977Z,8.63
2023-04-15T10:25:02.745Z,8.68
2023-04-15T10:30:02.514Z,8.72
2023-04-15T10:35:02.299Z,8.94
2023-04-15T10:40:03.108Z,8.74
2023-04-15T10:45:02.963Z,8.88
2023-04-15T10:50:02.729Z,8.93
2023-04-15T10:55:02.932Z,8.9
2023-04-15T11:00:02.318Z,8.96
2023-04-15T11:05:03.023Z,8.91
2023-04-15T11:10:02.744Z,8.72
2023-04-15T11:15:02.495Z,8.95
2023-04-15T11:20:02.236Z,9.01
2023-04-15T11:25:03.092Z,8.92
2023-04-15T11:30:02.958Z,8.88
2023-04-15T11:35:02.676Z,8.91
2023-04-15T11:40:02.425Z,8.86
2023-04-15T11:45:02.536Z,8.88
2023-04-15T11:50:02.244Z,9.09
2023-04-15T11:55:03.940Z,9
2023-04-15T12:00:02.881Z,8.97
2023-04-15T12:05:02.604Z,9.01
2023-04-15T12:10:02.898Z,8.96
2023-04-15T12:15:02.383Z,8.97
2023-04-15T12:20:02.176Z,8.99
2023-04-15T12:25:02.949Z,9.05
2023-04-15T12:30:02.302Z,9.2
2023-04-15T12:35:02.979Z,9.23
2023-04-15T12:40:02.883Z,9.44
2023-04-15T12:45:02.778Z,9.44
2023-04-15T12:50:02.405Z,9.63
2023-04-15T12:55:04.168Z,9.46
2023-04-15T13:00:02.861Z,9.55
2023-04-15T13:05:02.555Z,9.43
2023-04-15T13:10:02.490Z,9.46
2023-04-15T13:15:05.088Z,9.64
2023-04-15T13:20:02.985Z,9.76
2023-04-15T13:25:02.859Z,9.7
2023-04-15T13:30:02.516Z,9.65
2023-04-15T13:35:02.259Z,9.79
2023-04-15T13:40:02.275Z,9.78
2023-04-15T13:45:02.966Z,9.71
2023-04-15T13:50:02.643Z,9.65
2023-04-15T13:55:23.822Z,9.8
2023-04-15T14:00:02.453Z,9.67
2023-04-15T14:05:03.031Z,9.64
2023-04-15T14:10:02.850Z,9.58
2023-04-15T14:15:02.771Z,9.58
2023-04-15T14:20:02.546Z,9.63
2023-04-15T14:25:02.469Z,9.63
2023-04-15T14:30:02.408Z,9.67
2023-04-15T14:35:03.025Z,9.68
2023-04-15T14:40:02.752Z,9.62
2023-04-15T14:45:02.511Z,9.8
2023-04-15T14:50:02.535Z,9.94
2023-04-15T14:55:03.799Z,10.11
2023-04-15T15:00:03.014Z,10.15
2023-04-15T15:05:02.697Z,10.39
2023-04-15T15:10:02.528Z,10.43
2023-04-15T15:15:04.832Z,10.03
2023-04-15T15:20:02.581Z,10.1
2023-04-15T15:25:02.497Z,9.96
2023-04-15T15:30:03.236Z,9.98
2023-04-15T15:35:02.748Z,9.85
2023-04-15T15:40:02.601Z,9.74
2023-04-15T15:45:02.620Z,9.71
2023-04-15T15:50:04.288Z,9.66
2023-04-15T15:55:03.910Z,9.79
2023-04-15T16:05:02.642Z,9.78
2023-04-15T16:10:02.419Z,9.76
2023-04-15T16:15:02.291Z,9.65
2023-04-15T16:20:02.365Z,9.63
2023-04-15T16:25:03.075Z,9.62
2023-04-15T16:30:02.746Z,9.6
2023-04-15T16:35:02.410Z,9.59
2023-04-15T16:40:03.183Z,9.59
2023-04-15T16:45:03.050Z,9.58
2023-04-15T16:50:02.720Z,9.54
2023-04-15T16:55:03.700Z,9.48
2023-04-15T17:00:03.443Z,9.43
2023-04-15T17:05:02.875Z,9.39
2023-04-15T17:10:02.809Z,9.35
2023-04-15T17:15:02.687Z,9.31
2023-04-15T17:20:02.518Z,9.27
2023-04-15T17:25:02.381Z,9.25
2023-04-15T17:30:03.304Z,9.21
2023-04-15T17:35:02.406Z,9.18
2023-04-15T17:40:03.137Z,9.15
2023-04-15T17:45:02.902Z,9.11
2023-04-15T17:50:02.568Z,9.05
2023-04-15T17:55:03.335Z,9.04
2023-04-15T18:00:03.303Z,9.02
2023-04-15T18:05:03.163Z,9
2023-04-15T18:10:02.837Z,8.95
2023-04-15T18:15:02.490Z,8.9
2023-04-15T18:20:02.315Z,8.86
2023-04-15T18:25:03.081Z,8.82
2023-04-15T18:30:03.195Z,8.81
2023-04-15T18:35:02.867Z,8.8
2023-04-15T18:40:02.940Z,8.76
2023-04-15T18:45:02.760Z,8.75
2023-04-15T18:50:02.584Z,8.7
2023-04-15T18:55:02.934Z,8.66
2023-04-15T19:00:02.207Z,8.62
2023-04-15T19:05:03.019Z,8.6
2023-04-15T19:10:02.639Z,8.57
2023-04-15T19:15:02.470Z,8.62
2023-04-15T19:20:02.230Z,8.62
2023-04-15T19:25:03.152Z,8.59
2023-04-15T19:30:02.830Z,8.58
2023-04-15T19:35:02.608Z,8.54
2023-04-15T19:40:02.425Z,8.5
2023-04-15T19:45:02.289Z,8.48
2023-04-15T19:50:03.078Z,8.49
2023-04-15T19:55:03.830Z,8.51
2023-04-15T20:00:02.522Z,8.48
2023-04-15T20:05:02.231Z,8.44
2023-04-15T20:10:02.954Z,8.33
2023-04-15T20:15:03.268Z,8.3
2023-04-15T20:20:02.881Z,8.36
2023-04-15T20:25:03.164Z,8.36
2023-04-15T20:30:02.843Z,8.33
2023-04-15T20:35:02.648Z,8.36
2023-04-15T20:40:02.671Z,8.35
2023-04-15T20:45:02.467Z,8.32
2023-04-15T20:50:02.255Z,8.29
2023-04-15T20:55:03.739Z,8.22
2023-04-15T21:00:02.754Z,8.15
2023-04-15T21:05:02.503Z,8.09
2023-04-15T21:10:02.262Z,8.17
2023-04-15T21:15:03.152Z,8.23
2023-04-15T21:20:02.912Z,8.17
2023-04-15T21:25:02.636Z,8.16
2023-04-15T21:30:02.404Z,8.14
2023-04-15T21:35:02.256Z,8.2
2023-04-15T21:40:02.418Z,8.2
2023-04-15T21:45:03.127Z,8.13
2023-04-15T21:50:02.727Z,8.12
2023-04-15T21:55:03.576Z,8.1
2023-04-15T22:00:02.784Z,8.05
2023-04-15T22:05:02.780Z,8.02
2023-04-15T22:10:02.925Z,8.01
2023-04-15T22:15:02.740Z,8.02
2023-04-15T22:20:02.459Z,7.97
2023-04-15T22:25:02.221Z,7.9
2023-04-15T22:30:03.128Z,7.89
2023-04-15T22:35:02.969Z,7.86
2023-04-15T22:40:02.815Z,7.88
2023-04-15T22:45:02.606Z,7.87
2023-04-15T22:50:02.350Z,7.85
2023-04-15T22:55:02.753Z,7.82
2023-04-15T23:00:03.110Z,7.85
2023-04-15T23:05:06.245Z,7.89
2023-04-15T23:10:02.513Z,7.86
2023-04-15T23:15:02.300Z,7.96
2023-04-15T23:20:02.288Z,7.91
2023-04-15T23:25:02.984Z,7.92
2023-04-15T23:30:02.929Z,8.02
2023-04-15T23:35:02.960Z,7.97
2023-04-15T23:40:03.124Z,8.01
2023-04-15T23:45:02.573Z,8.04
2023-04-15T23:50:02.277Z,8.07
2023-04-15T23:55:04.155Z,8.09
